createdAt,value
2023-11-23T00:04:22.453Z,23.90
2023-11-23T00:07:25.190Z,25.77
2023-11-23T00:10:29.728Z,26.37
2023-11-23T00:13:32.334Z,25.75
2023-11-23T00:16:35.490Z,28.23
2023-11-23T00:19:38.080Z,28.97
2023-11-23T00:22:41.193Z,26.45
2023-11-23T00:25:45.685Z,25.40
2023-11-23T00:28:48.951Z,26.65
2023-11-23T00:31:51.548Z,28.00
2023-11-23T00:34:54.763Z,27.92
2023-11-23T00:37:57.418Z,28.47
2023-11-23T00:41:02.571Z,29.67
2023-11-23T00:44:05.867Z,27.02
2023-11-23T00:47:12.937Z,26.37
2023-11-23T00:50:15.724Z,28.02
2023-11-23T00:53:18.958Z,25.35
2023-11-23T00:56:21.838Z,25.67
2023-11-23T00:59:25.082Z,23.67
2023-11-23T01:02:28.557Z,26.65
2023-11-23T01:05:32.752Z,24.75
2023-11-23T01:08:35.356Z,24.83
2023-11-23T01:11:39.220Z,24.80
2023-11-23T01:14:41.970Z,28.52
2023-11-23T01:17:45.259Z,27.40
2023-11-23T01:20:47.916Z,24.92
2023-11-23T01:23:51.001Z,25.98
2023-11-23T01:26:53.678Z,26.73
2023-11-23T01:29:57.440Z,27.23
2023-11-23T01:33:00.124Z,26.10
2023-11-23T01:36:03.724Z,25.02
2023-11-23T01:39:06.380Z,26.70
2023-11-23T01:42:09.571Z,25.65
2023-11-23T01:45:13.231Z,27.95
2023-11-23T01:48:17.236Z,27.80
2023-11-23T01:54:24.385Z,28.17
2023-11-23T01:57:33.385Z,25.95
2023-11-23T02:00:38.345Z,30.48
2023-11-23T02:03:41.400Z,29.37
2023-11-23T02:06:44.407Z,26.98
2023-11-23T02:09:47.271Z,25.60
2023-11-23T02:12:51.614Z,25.77
2023-11-23T02:15:54.604Z,27.90
2023-11-23T02:18:57.479Z,27.30
2023-11-23T02:22:00.371Z,27.83
2023-11-23T02:25:05.284Z,25.83
2023-11-23T02:28:09.468Z,30.27
2023-11-23T02:31:12.413Z,26.40
2023-11-23T02:34:16.096Z,27.40
2023-11-23T02:37:19.337Z,25.55
2023-11-23T02:40:22.440Z,25.08
2023-11-23T02:43:26.852Z,23.15
2023-11-23T02:46:29.989Z,23.08
2023-11-23T02:52:36.338Z,22.08
2023-11-23T02:55:39.244Z,23.98
2023-11-23T02:58:43.049Z,23.08
2023-11-23T03:01:45.993Z,21.65
2023-11-23T03:04:49.223Z,22.23
2023-11-23T03:07:53.356Z,23.20
2023-11-23T03:10:56.278Z,22.95
2023-11-23T03:13:59.532Z,22.40
2023-11-23T03:17:04.913Z,21.48
2023-11-23T03:20:10.192Z,20.30
2023-11-23T03:23:13.432Z,21.40
2023-11-23T03:26:17.639Z,20.10
2023-11-23T03:29:20.894Z,19.67
2023-11-23T03:32:26.545Z,22.80
2023-11-23T03:35:29.445Z,21.67
2023-11-23T03:38:32.694Z,21.65
2023-11-23T03:41:35.650Z,21.20
2023-11-23T03:44:38.575Z,22.50
2023-11-23T03:47:41.451Z,20.05
2023-11-23T03:50:44.613Z,22.25
2023-11-23T03:53:47.559Z,23.27
2023-11-23T03:56:50.639Z,28.48
2023-11-23T03:59:53.460Z,23.42
2023-11-23T04:02:57.381Z,21.40
2023-11-23T04:06:00.541Z,22.52
2023-11-23T04:09:04.562Z,22.55
2023-11-23T04:12:08.040Z,25.00
2023-11-23T04:18:14.209Z,23.37
2023-11-23T04:21:17.478Z,23.65
2023-11-23T04:24:20.468Z,22.17
2023-11-23T04:27:23.368Z,20.10
2023-11-23T04:30:26.489Z,19.80
2023-11-23T04:33:29.395Z,24.33
2023-11-23T04:36:32.247Z,23.05
2023-11-23T04:39:35.576Z,22.58
2023-11-23T04:45:42.323Z,23.50
2023-11-23T04:48:45.247Z,20.40
2023-11-23T04:51:48.119Z,21.05
2023-11-23T04:54:51.056Z,21.00
2023-11-23T04:57:53.890Z,18.30
2023-11-23T05:00:56.833Z,19.92
2023-11-23T05:04:03.003Z,18.15
2023-11-23T05:07:07.971Z,17.45
2023-11-23T05:10:11.064Z,17.73
2023-11-23T05:13:14.638Z,16.65
2023-11-23T05:16:17.725Z,19.90
2023-11-23T05:19:31.827Z,18.77
2023-11-23T05:22:47.063Z,19.15
2023-11-23T05:25:50.662Z,19.12
2023-11-23T05:31:56.165Z,19.05
2023-11-23T05:34:58.999Z,19.50
2023-11-23T05:38:02.646Z,18.80
2023-11-23T05:41:05.675Z,18.85
2023-11-23T05:44:08.658Z,18.98
2023-11-23T05:47:11.966Z,18.70
2023-11-23T05:50:14.871Z,18.95
2023-11-23T05:53:17.718Z,17.83
2023-11-23T05:56:20.810Z,19.48
2023-11-23T05:59:23.957Z,18.62
2023-11-23T06:02:27.562Z,20.75
2023-11-23T06:05:32.098Z,18.77
2023-11-23T06:08:36.105Z,21.53
2023-11-23T06:11:39.399Z,19.80
2023-11-23T06:14:42.303Z,18.58
2023-11-23T06:17:45.602Z,18.73
2023-11-23T06:20:48.519Z,21.42
2023-11-23T06:23:52.828Z,20.98
2023-11-23T06:26:55.541Z,20.52
2023-11-23T06:29:59.024Z,22.23
2023-11-23T06:33:01.778Z,23.02
2023-11-23T06:36:05.237Z,21.85
2023-11-23T06:39:10.566Z,29.17
2023-11-23T06:42:13.995Z,24.17
2023-11-23T06:45:17.834Z,20.08
2023-11-23T06:48:21.217Z,25.67
2023-11-23T06:51:24.073Z,23.95
2023-11-23T06:57:29.823Z,24.17
2023-11-23T07:00:33.562Z,22.27
2023-11-23T07:03:37.671Z,26.52
2023-11-23T07:06:41.504Z,29.95
2023-11-23T07:09:44.102Z,26.45
2023-11-23T07:12:48.313Z,28.62
2023-11-23T07:18:54.315Z,27.85
2023-11-23T07:21:57.597Z,25.58
2023-11-23T07:25:01.462Z,27.48
2023-11-23T07:28:05.244Z,25.80
2023-11-23T07:31:10.534Z,27.60
2023-11-23T07:34:13.167Z,28.98
2023-11-23T07:37:16.900Z,24.45
2023-11-23T07:40:19.477Z,28.10
2023-11-23T07:43:22.693Z,27.20
2023-11-23T07:46:26.161Z,26.35
2023-11-23T07:49:29.326Z,30.37
2023-11-23T07:52:32.420Z,30.40
2023-11-23T07:55:36.035Z,31.02
2023-11-23T07:58:38.643Z,29.00
2023-11-23T08:01:41.801Z,29.37
2023-11-23T08:04:45.542Z,27.13
2023-11-23T08:07:51.329Z,29.60
2023-11-23T08:10:54.259Z,30.30
2023-11-23T08:13:57.186Z,29.58
2023-11-23T08:17:00.261Z,29.87
2023-11-23T08:20:08.201Z,26.23
2023-11-23T08:23:13.856Z,28.65
2023-11-23T08:26:17.605Z,25.98
2023-11-23T08:29:20.568Z,27.60
2023-11-23T08:32:23.865Z,29.55
2023-11-23T08:35:27.078Z,26.12
2023-11-23T08:38:30.273Z,27.15
2023-11-23T08:44:37.191Z,23.25
2023-11-23T08:47:40.250Z,22.08
2023-11-23T08:50:43.339Z,21.73
2023-11-23T08:56:48.964Z,23.95
2023-11-23T08:59:52.231Z,22.37
2023-11-23T09:05:59.674Z,22.67
2023-11-23T09:09:03.086Z,21.12
2023-11-23T09:12:06.603Z,22.27
2023-11-23T09:15:11.416Z,22.58
2023-11-23T09:18:15.303Z,20.95
2023-11-23T09:21:18.449Z,21.08
2023-11-23T09:24:23.174Z,20.48
2023-11-23T09:27:26.290Z,18.95
2023-11-23T09:33:32.797Z,21.95
2023-11-23T09:36:35.881Z,21.30
2023-11-23T09:39:39.841Z,17.45
2023-11-23T09:42:42.978Z,17.10
2023-11-23T09:45:46.696Z,18.10
2023-11-23T09:48:50.408Z,18.60
2023-11-23T09:51:53.611Z,22.42
2023-11-23T09:58:04.645Z,22.45
2023-11-23T10:01:10.542Z,20.98
2023-11-23T10:04:13.890Z,23.00
2023-11-23T10:07:21.512Z,24.63
2023-11-23T10:10:28.130Z,23.80
2023-11-23T10:13:30.827Z,29.15
2023-11-23T10:16:34.339Z,21.67
2023-11-23T10:19:37.517Z,22.33
2023-11-23T10:22:48.785Z,20.80
2023-11-23T10:25:52.466Z,24.12
2023-11-23T10:28:56.608Z,24.65
2023-11-23T10:35:08.210Z,23.70
2023-11-23T10:38:13.184Z,25.35
2023-11-23T10:41:17.563Z,23.35
2023-11-23T10:44:21.241Z,23.52
2023-11-23T10:47:27.771Z,24.27
2023-11-23T10:50:31.144Z,26.45
2023-11-23T10:53:34.597Z,24.55
2023-11-23T10:56:38.023Z,25.08
2023-11-23T10:59:45.496Z,27.08
2023-11-23T11:02:49.181Z,23.17
2023-11-23T11:05:54.606Z,20.50
2023-11-23T11:08:57.247Z,21.90
2023-11-23T11:12:03.505Z,22.52
2023-11-23T11:15:07.855Z,24.02
2023-11-23T11:18:11.824Z,22.48
2023-11-23T11:21:18.369Z,21.25
2023-11-23T11:24:23.246Z,23.92
2023-11-23T11:27:30.428Z,22.13
2023-11-23T11:30:38.849Z,20.33
2023-11-23T11:33:41.821Z,19.92
2023-11-23T11:36:45.818Z,19.85
2023-11-23T11:42:52.091Z,20.12
2023-11-23T11:45:54.930Z,21.48
2023-11-23T11:49:01.841Z,20.23
2023-11-23T11:52:07.374Z,18.67
2023-11-23T11:55:10.714Z,16.40
2023-11-23T11:58:13.340Z,19.20
2023-11-23T12:04:22.887Z,16.70
2023-11-23T12:07:26.552Z,17.33
2023-11-23T12:10:39.803Z,16.37
2023-11-23T12:13:42.672Z,16.17
2023-11-23T12:16:47.160Z,16.05
2023-11-23T12:19:54.088Z,15.40
2023-11-23T12:23:00.827Z,15.82
2023-11-23T12:26:03.852Z,13.95
2023-11-23T12:29:06.771Z,13.20
2023-11-23T12:32:09.785Z,14.63
2023-11-23T12:35:12.693Z,18.00
2023-11-23T12:38:15.774Z,14.32
2023-11-23T12:41:20.619Z,15.90
2023-11-23T12:44:23.481Z,17.15
2023-11-23T12:47:27.974Z,17.48
2023-11-23T12:50:32.519Z,16.83
2023-11-23T12:53:35.565Z,18.70
2023-11-23T12:56:39.218Z,17.42
2023-11-23T12:59:42.079Z,16.48
2023-11-23T13:02:45.120Z,14.98
2023-11-23T13:05:50.924Z,18.25
2023-11-23T13:08:53.943Z,18.83
2023-11-23T13:11:58.145Z,21.00
2023-11-23T13:15:01.185Z,17.42
2023-11-23T13:18:05.780Z,19.75
2023-11-23T13:21:09.188Z,18.02
2023-11-23T13:24:13.445Z,16.98
2023-11-23T13:27:17.429Z,15.95
2023-11-23T13:30:20.636Z,17.30
2023-11-23T13:33:24.655Z,16.48
2023-11-23T13:36:30.520Z,14.20
2023-11-23T13:39:36.937Z,15.98
2023-11-23T13:42:42.519Z,13.73
2023-11-23T13:45:50.702Z,14.10
2023-11-23T13:48:53.887Z,15.63
2023-11-23T13:51:58.360Z,13.73
2023-11-23T13:55:01.326Z,18.37
2023-11-23T13:58:06.633Z,18.52
2023-11-23T14:01:12.766Z,22.77
2023-11-23T14:04:16.216Z,24.00
2023-11-23T14:07:19.452Z,24.70
2023-11-23T14:10:22.855Z,25.25
2023-11-23T14:13:26.774Z,27.37
2023-11-23T14:16:36.066Z,25.42
2023-11-23T14:19:39.521Z,25.90
2023-11-23T14:22:45.499Z,27.92
2023-11-23T14:25:48.326Z,27.00
2023-11-23T14:28:51.845Z,26.83
2023-11-23T14:31:55.114Z,29.70
2023-11-23T14:34:58.708Z,27.60
2023-11-23T14:38:03.485Z,24.10
2023-11-23T14:41:09.447Z,25.90
2023-11-23T14:44:12.328Z,28.33
2023-11-23T14:50:18.506Z,27.95
2023-11-23T14:53:28.196Z,24.67
2023-11-23T14:56:30.857Z,27.20
2023-11-23T14:59:36.958Z,28.65
2023-11-23T15:02:42.418Z,26.75
2023-11-23T15:05:47.010Z,27.75
2023-11-23T15:08:54.267Z,28.48
2023-11-23T15:12:01.076Z,26.70
2023-11-23T15:15:03.943Z,29.87
2023-11-23T15:18:08.878Z,26.05
2023-11-23T15:21:13.234Z,26.48
2023-11-23T15:24:19.276Z,27.62
2023-11-23T15:27:23.208Z,27.77
2023-11-23T15:30:26.500Z,25.90
2023-11-23T15:33:31.019Z,28.75
2023-11-23T15:36:40.250Z,26.15
2023-11-23T15:39:46.112Z,30.75
2023-11-23T15:42:49.333Z,29.87
2023-11-23T15:45:53.217Z,29.47
2023-11-23T15:48:56.442Z,30.70
2023-11-23T15:51:59.465Z,27.48
2023-11-23T15:55:05.871Z,26.73
2023-11-23T15:58:09.983Z,29.77
2023-11-23T16:01:13.594Z,29.27
2023-11-23T16:04:16.901Z,26.20
2023-11-23T16:10:22.881Z,29.30
2023-11-23T16:13:26.025Z,28.25
2023-11-23T16:16:28.948Z,26.65
2023-11-23T16:19:31.825Z,26.87
2023-11-23T16:22:34.687Z,35.50
2023-11-23T16:25:37.559Z,27.50
2023-11-23T16:28:40.507Z,26.75
2023-11-23T16:31:46.222Z,26.52
2023-11-23T16:34:49.679Z,22.73
2023-11-23T16:37:52.768Z,25.92
2023-11-23T16:40:57.865Z,29.37
2023-11-23T16:44:00.861Z,28.08
2023-11-23T16:47:04.441Z,27.50
2023-11-23T16:50:10.800Z,28.40
2023-11-23T16:53:14.453Z,27.52
2023-11-23T16:56:17.610Z,29.02
2023-11-23T16:59:21.362Z,30.60
2023-11-23T17:02:24.770Z,28.00
2023-11-23T17:08:30.985Z,24.67
2023-11-23T17:11:34.114Z,27.27
2023-11-23T17:14:37.342Z,29.80
2023-11-23T17:17:46.178Z,27.05
2023-11-23T17:20:49.191Z,28.42
2023-11-23T17:23:52.667Z,29.60
2023-11-23T17:29:58.685Z,27.48
2023-11-23T17:36:06.525Z,27.35
2023-11-23T17:39:16.873Z,29.15
2023-11-23T17:42:20.919Z,27.25
2023-11-23T17:45:24.505Z,27.90
2023-11-23T17:48:28.824Z,26.00
2023-11-23T17:51:31.804Z,25.40
2023-11-23T17:54:34.676Z,25.17
2023-11-23T17:57:37.875Z,29.25
2023-11-23T18:00:40.994Z,24.80
2023-11-23T18:06:46.973Z,28.25
2023-11-23T18:09:53.115Z,26.48
2023-11-23T18:12:57.864Z,25.48
2023-11-23T18:16:00.966Z,27.30
2023-11-23T18:19:03.915Z,27.87
2023-11-23T18:25:11.564Z,27.70
2023-11-23T18:28:14.730Z,26.80
2023-11-23T18:31:19.805Z,26.10
2023-11-23T18:34:23.100Z,26.77
2023-11-23T18:37:25.930Z,24.37
2023-11-23T18:43:31.924Z,27.10
2023-11-23T18:49:39.605Z,27.58
2023-11-23T18:52:43.215Z,28.25
2023-11-23T18:55:48.316Z,28.05
2023-11-23T18:58:51.561Z,27.77
2023-11-23T19:01:55.768Z,30.60
2023-11-23T19:05:00.539Z,27.65
2023-11-23T19:08:03.549Z,28.67
2023-11-23T19:11:07.403Z,25.48
2023-11-23T19:14:10.179Z,30.27
2023-11-23T19:17:14.737Z,29.98
2023-11-23T19:20:18.759Z,30.98
2023-11-23T19:23:23.340Z,28.77
2023-11-23T19:26:27.077Z,27.60
2023-11-23T19:29:38.936Z,28.70
2023-11-23T19:32:52.712Z,29.58
2023-11-23T19:35:56.517Z,29.02
2023-11-23T19:38:59.806Z,30.48
2023-11-23T19:42:05.111Z,29.27
2023-11-23T19:45:08.365Z,33.80
2023-11-23T19:48:12.302Z,29.00
2023-11-23T19:51:22.955Z,30.15
2023-11-23T19:54:27.146Z,32.53
2023-11-23T19:57:29.775Z,33.65
2023-11-23T20:00:33.305Z,34.33
2023-11-23T20:03:36.554Z,36.95
2023-11-23T20:06:39.508Z,34.55
2023-11-23T20:09:44.283Z,33.42
2023-11-23T20:12:47.381Z,35.33
2023-11-23T20:15:50.626Z,33.60
2023-11-23T20:18:53.632Z,31.15
2023-11-23T20:21:56.970Z,29.67
2023-11-23T20:25:00.017Z,32.45
2023-11-23T20:28:03.108Z,29.83
2023-11-23T20:31:06.400Z,29.95
2023-11-23T20:34:09.409Z,30.00
2023-11-23T20:37:12.366Z,32.97
2023-11-23T20:40:15.475Z,29.67
2023-11-23T20:43:20.452Z,25.10
2023-11-23T20:46:24.614Z,24.98
2023-11-23T20:49:27.651Z,29.23
2023-11-23T20:52:30.522Z,30.35
2023-11-23T20:55:33.774Z,28.42
2023-11-23T20:58:37.349Z,26.58
2023-11-23T21:01:40.936Z,27.42
2023-11-23T21:04:45.263Z,25.60
2023-11-23T21:07:48.498Z,26.55
2023-11-23T21:10:51.510Z,27.08
2023-11-23T21:13:54.413Z,25.12
2023-11-23T21:16:57.362Z,26.75
2023-11-23T21:20:00.312Z,25.00
2023-11-23T21:23:04.035Z,26.83
2023-11-23T21:26:07.373Z,24.60
2023-11-23T21:29:13.321Z,25.42
2023-11-23T21:32:16.856Z,26.70
2023-11-23T21:35:22.432Z,28.87
2023-11-23T21:38:25.375Z,29.08
2023-11-23T21:41:28.290Z,26.25
2023-11-23T21:44:31.493Z,27.67
2023-11-23T21:47:35.483Z,27.73
2023-11-23T21:50:39.668Z,25.60
2023-11-23T21:53:42.727Z,26.10
2023-11-23T21:56:46.334Z,26.55
2023-11-23T22:02:51.911Z,25.52
2023-11-23T22:05:54.843Z,25.83
2023-11-23T22:08:57.857Z,23.38
2023-11-23T22:12:00.711Z,22.92
2023-11-23T22:15:03.919Z,24.85
2023-11-23T22:18:07.157Z,26.62
2023-11-23T22:21:10.821Z,25.02
2023-11-23T22:24:17.647Z,23.02
2023-11-23T22:27:21.614Z,24.10
2023-11-23T22:30:24.862Z,21.45
2023-11-23T22:33:29.044Z,21.00
2023-11-23T22:36:32.284Z,21.83
2023-11-23T22:39:35.427Z,20.90
2023-11-23T22:42:39.615Z,21.67
2023-11-23T22:45:43.173Z,21.58
2023-11-23T22:48:46.146Z,22.33
2023-11-23T22:51:49.627Z,22.98
2023-11-23T22:57:56.141Z,19.35
2023-11-23T23:00:59.308Z,22.33
2023-11-23T23:04:02.311Z,22.42
2023-11-23T23:07:07.225Z,23.17
2023-11-23T23:10:10.163Z,23.73
2023-11-23T23:13:14.274Z,23.75
2023-11-23T23:16:17.280Z,24.40
2023-11-23T23:19:20.191Z,26.00
2023-11-23T23:22:28.785Z,23.87
2023-11-23T23:25:32.702Z,27.62
2023-11-23T23:28:35.812Z,28.12
2023-11-23T23:31:40.033Z,27.45
2023-11-23T23:34:43.002Z,25.80
2023-11-23T23:37:47.137Z,26.62
2023-11-23T23:40:51.778Z,32.00
2023-11-23T23:43:54.871Z,34.40
2023-11-23T23:46:57.815Z,25.55
2023-11-23T23:50:00.710Z,33.58
2023-11-23T23:53:03.618Z,30.20
2023-11-23T23:56:08.055Z,32.78
2023-11-23T23:59:11.562Z,29.25
